createdAt,value
2022-08-17T00:00:34.965Z,9.90
2022-08-17T00:03:05.221Z,10.85
2022-08-17T00:05:36.144Z,10.30
2022-08-17T00:08:03.495Z,10.75
2022-08-17T00:10:32.231Z,10.75
2022-08-17T00:12:59.848Z,10.68
2022-08-17T00:15:27.142Z,9.57
2022-08-17T00:17:54.089Z,10.57
2022-08-17T00:20:23.369Z,10.07
2022-08-17T00:23:13.885Z,10.65
2022-08-17T00:25:42.996Z,11.07
2022-08-17T00:28:10.106Z,10.77
2022-08-17T00:30:51.335Z,10.30
2022-08-17T00:33:27.583Z,11.05
2022-08-17T00:35:55.667Z,10.32
2022-08-17T00:38:23.943Z,10.20
2022-08-17T00:40:59.215Z,10.15
2022-08-17T00:43:26.469Z,9.82
2022-08-17T00:45:53.989Z,10.35
2022-08-17T00:48:29.223Z,9.70
2022-08-17T00:51:17.645Z,10.38
2022-08-17T00:53:51.302Z,11.02
2022-08-17T00:56:26.498Z,10.52
2022-08-17T00:58:55.230Z,9.80
2022-08-17T01:01:23.027Z,9.32
2022-08-17T01:03:53.330Z,9.77
2022-08-17T01:06:25.007Z,8.57
2022-08-17T01:08:57.487Z,9.55
2022-08-17T01:11:26.172Z,9.32
2022-08-17T01:13:53.463Z,9.23
2022-08-17T01:16:26.690Z,10.65
2022-08-17T01:18:58.298Z,10.85
2022-08-17T01:21:46.341Z,10.05
2022-08-17T01:24:14.196Z,11.20
2022-08-17T01:26:42.681Z,11.13
2022-08-17T01:29:10.858Z,10.68
2022-08-17T01:31:42.517Z,10.65
2022-08-17T01:34:12.067Z,10.13
2022-08-17T01:36:42.898Z,10.35
2022-08-17T01:39:27.174Z,9.93
2022-08-17T01:42:01.364Z,10.30
2022-08-17T01:44:28.347Z,9.63
2022-08-17T01:46:55.451Z,9.38
2022-08-17T01:49:22.973Z,10.15
2022-08-17T01:51:50.046Z,10.15
2022-08-17T01:54:20.003Z,9.13
2022-08-17T01:56:49.630Z,10.73
2022-08-17T01:59:19.005Z,10.35
2022-08-17T02:01:47.199Z,9.73
2022-08-17T02:04:15.208Z,10.20
2022-08-17T02:06:45.375Z,9.95
2022-08-17T02:09:25.254Z,9.32
2022-08-17T02:11:54.789Z,10.02
2022-08-17T02:14:24.962Z,10.48
2022-08-17T02:16:52.930Z,9.65
2022-08-17T02:19:20.357Z,9.43
2022-08-17T02:21:50.914Z,9.45
2022-08-17T02:25:00.750Z,10.35
2022-08-17T02:27:10.476Z,10.68
2022-08-17T02:29:37.698Z,11.18
2022-08-17T02:32:05.306Z,10.05
2022-08-17T02:34:32.896Z,9.82
2022-08-17T02:36:59.759Z,10.20
2022-08-17T02:39:26.710Z,10.10
2022-08-17T02:42:01.960Z,9.50
2022-08-17T02:44:38.976Z,9.80
2022-08-17T02:47:11.179Z,9.20
2022-08-17T02:49:38.462Z,10.25
2022-08-17T02:52:07.666Z,10.02
2022-08-17T02:54:40.687Z,9.70
2022-08-17T02:57:10.319Z,10.50
2022-08-17T02:59:39.465Z,8.93
2022-08-17T03:02:08.704Z,10.00
2022-08-17T03:04:35.898Z,10.20
2022-08-17T03:07:04.642Z,10.13
2022-08-17T03:09:31.490Z,9.82
2022-08-17T03:12:11.095Z,10.15
2022-08-17T03:14:42.412Z,9.65
2022-08-17T03:17:10.969Z,10.20
2022-08-17T03:19:43.126Z,9.50
2022-08-17T03:22:35.474Z,10.10
2022-08-17T03:24:58.696Z,9.50
2022-08-17T03:27:25.648Z,9.55
2022-08-17T03:29:53.326Z,9.30
2022-08-17T03:32:21.035Z,9.20
2022-08-17T03:34:48.177Z,9.85
2022-08-17T03:37:15.245Z,9.52
2022-08-17T03:39:43.009Z,10.45
2022-08-17T03:42:31.815Z,8.82
2022-08-17T03:45:01.112Z,9.65
2022-08-17T03:47:46.922Z,8.75
2022-08-17T03:50:34.021Z,9.25
2022-08-17T03:53:23.036Z,8.35
2022-08-17T03:56:09.066Z,8.68
2022-08-17T03:58:38.975Z,9.15
2022-08-17T04:01:06.953Z,9.52
2022-08-17T04:03:33.875Z,9.60
2022-08-17T04:06:02.222Z,10.10
2022-08-17T04:08:29.949Z,9.73
2022-08-17T04:10:57.749Z,9.20
2022-08-17T04:13:25.630Z,10.45
2022-08-17T04:15:53.845Z,13.23
2022-08-17T04:18:20.881Z,11.45
2022-08-17T04:20:47.758Z,10.82
2022-08-17T04:23:17.857Z,10.27
2022-08-17T04:25:49.048Z,11.63
2022-08-17T04:28:18.739Z,10.40
2022-08-17T04:30:47.553Z,11.40
2022-08-17T04:33:16.392Z,11.07
2022-08-17T04:35:49.393Z,10.63
2022-08-17T04:38:20.846Z,10.15
2022-08-17T04:41:07.279Z,10.73
2022-08-17T04:43:35.556Z,10.77
2022-08-17T04:46:06.141Z,11.05
2022-08-17T04:48:37.599Z,10.75
2022-08-17T04:51:09.750Z,10.60
2022-08-17T04:53:39.005Z,11.55
2022-08-17T04:56:06.935Z,11.13
2022-08-17T04:58:34.005Z,11.18
2022-08-17T05:01:01.567Z,11.85
2022-08-17T05:03:29.784Z,11.15
2022-08-17T05:05:56.797Z,12.02
2022-08-17T05:08:23.945Z,11.32
2022-08-17T05:10:51.034Z,10.52
2022-08-17T05:13:25.001Z,13.38
2022-08-17T05:15:59.061Z,12.70
2022-08-17T05:18:27.196Z,12.32
2022-08-17T05:20:54.130Z,12.73
2022-08-17T05:23:23.783Z,12.13
2022-08-17T05:25:53.117Z,11.77
2022-08-17T05:28:24.040Z,13.10
2022-08-17T05:30:58.136Z,12.23
2022-08-17T05:33:28.710Z,12.52
2022-08-17T05:35:58.013Z,13.93
2022-08-17T05:38:27.750Z,13.18
2022-08-17T05:40:55.900Z,12.65
2022-08-17T05:43:26.742Z,13.38
2022-08-17T05:46:01.090Z,12.20
2022-08-17T05:48:35.813Z,13.30
2022-08-17T05:51:19.300Z,11.90
2022-08-17T05:54:14.333Z,11.93
2022-08-17T05:56:59.607Z,12.15
2022-08-17T05:59:32.917Z,12.27
2022-08-17T06:02:22.561Z,13.00
2022-08-17T06:05:23.354Z,12.13
2022-08-17T06:08:00.460Z,11.88
2022-08-17T06:10:44.011Z,11.40
2022-08-17T06:13:31.672Z,12.43
2022-08-17T06:16:04.573Z,11.25
2022-08-17T06:19:02.393Z,12.40
2022-08-17T06:21:36.034Z,11.45
2022-08-17T06:24:16.280Z,11.15
2022-08-17T06:26:45.441Z,9.82
2022-08-17T06:29:31.124Z,10.43
2022-08-17T06:31:58.561Z,10.02
2022-08-17T06:34:25.647Z,9.73
2022-08-17T06:37:06.556Z,9.60
2022-08-17T06:39:59.546Z,10.10
2022-08-17T06:43:06.497Z,9.85
2022-08-17T06:45:49.479Z,10.07
2022-08-17T06:48:29.016Z,9.32
2022-08-17T06:51:02.814Z,8.43
2022-08-17T06:53:42.448Z,9.15
2022-08-17T06:56:21.860Z,8.88
2022-08-17T06:58:49.611Z,8.13
2022-08-17T07:01:30.955Z,8.63
2022-08-17T07:04:11.993Z,8.93
2022-08-17T07:06:39.386Z,8.07
2022-08-17T07:09:23.383Z,9.48
2022-08-17T07:12:05.791Z,8.18
2022-08-17T07:14:56.302Z,8.77
2022-08-17T07:17:48.018Z,8.38
2022-08-17T07:20:20.646Z,7.88
2022-08-17T07:23:06.724Z,8.98
2022-08-17T07:25:33.656Z,8.45
2022-08-17T07:28:06.911Z,8.52
2022-08-17T07:30:48.916Z,8.43
2022-08-17T07:33:20.147Z,8.68
2022-08-17T07:35:48.466Z,8.48
2022-08-17T07:38:30.571Z,8.57
2022-08-17T07:40:58.148Z,7.78
2022-08-17T07:43:26.480Z,7.10
2022-08-17T07:46:30.206Z,8.15
2022-08-17T07:49:17.531Z,8.07
2022-08-17T07:51:44.396Z,7.95
2022-08-17T07:54:22.518Z,8.52
2022-08-17T07:56:53.454Z,7.53
2022-08-17T07:59:25.557Z,8.05
2022-08-17T08:02:05.436Z,8.52
2022-08-17T08:05:01.491Z,8.15
2022-08-17T08:07:34.825Z,8.20
2022-08-17T08:10:10.094Z,8.32
2022-08-17T08:12:42.407Z,8.40
2022-08-17T08:15:15.317Z,7.93
2022-08-17T08:17:53.339Z,8.02
2022-08-17T08:20:51.147Z,7.82
2022-08-17T08:23:26.725Z,8.40
2022-08-17T08:26:17.968Z,8.55
2022-08-17T08:29:01.749Z,7.35
2022-08-17T08:31:44.655Z,7.93
2022-08-17T08:34:58.972Z,7.20
2022-08-17T08:37:35.604Z,7.72
2022-08-17T08:40:32.767Z,7.57
2022-08-17T08:43:41.800Z,7.30
2022-08-17T08:46:39.628Z,7.68
2022-08-17T08:49:19.102Z,8.60
2022-08-17T08:51:56.196Z,7.75
2022-08-17T08:54:43.600Z,7.22
2022-08-17T08:57:32.892Z,7.70
2022-08-17T09:00:09.243Z,7.60
2022-08-17T09:03:05.315Z,7.95
2022-08-17T09:05:52.817Z,8.15
2022-08-17T09:08:41.073Z,6.47
2022-08-17T09:11:17.369Z,6.82
2022-08-17T09:13:54.459Z,6.82
2022-08-17T09:16:44.509Z,6.90
2022-08-17T09:19:17.553Z,7.45
2022-08-17T09:21:55.006Z,6.70
2022-08-17T09:24:28.319Z,7.00
2022-08-17T09:27:15.394Z,7.00
2022-08-17T09:30:00.358Z,7.30
2022-08-17T09:32:44.354Z,7.55
2022-08-17T09:35:16.459Z,7.05
2022-08-17T09:38:00.338Z,6.55
2022-08-17T09:40:34.305Z,6.45
2022-08-17T09:43:12.575Z,6.30
2022-08-17T09:46:02.251Z,5.72
2022-08-17T09:48:38.643Z,6.35
2022-08-17T09:51:17.954Z,7.15
2022-08-17T09:53:45.086Z,6.38
2022-08-17T09:56:45.383Z,6.75
2022-08-17T09:59:20.160Z,5.80
2022-08-17T10:01:55.609Z,6.25
2022-08-17T10:04:36.849Z,6.15
2022-08-17T10:07:18.235Z,5.28
2022-08-17T10:10:14.226Z,5.22
2022-08-17T10:13:01.048Z,4.75
2022-08-17T10:15:57.730Z,5.18
2022-08-17T10:18:46.936Z,4.40
2022-08-17T10:21:37.365Z,4.10
2022-08-17T10:24:37.477Z,4.18
2022-08-17T10:27:11.135Z,4.43
2022-08-17T10:29:50.728Z,5.15
2022-08-17T10:32:37.718Z,4.30
2022-08-17T10:35:14.642Z,5.03
2022-08-17T10:38:00.492Z,4.40
2022-08-17T10:41:05.771Z,3.80
2022-08-17T10:43:44.646Z,3.70
2022-08-17T10:47:07.867Z,5.00
2022-08-17T10:49:44.311Z,5.18
2022-08-17T10:52:20.632Z,5.13
2022-08-17T10:54:51.775Z,4.55
2022-08-17T10:57:42.030Z,4.80
2022-08-17T11:00:25.612Z,5.30
2022-08-17T11:02:57.531Z,4.63
2022-08-17T11:05:29.087Z,5.25
2022-08-17T11:08:45.251Z,5.30
2022-08-17T11:11:20.218Z,4.85
2022-08-17T11:14:17.337Z,4.68
2022-08-17T11:17:04.959Z,5.05
2022-08-17T11:20:17.084Z,5.00
2022-08-17T11:23:43.094Z,5.40
2022-08-17T11:26:30.084Z,5.10
2022-08-17T11:29:01.440Z,5.18
2022-08-17T11:31:38.624Z,5.53
2022-08-17T11:34:18.876Z,5.40
2022-08-17T11:36:56.131Z,5.50
2022-08-17T11:39:51.660Z,5.10
2022-08-17T11:42:25.568Z,5.03
2022-08-17T11:44:58.404Z,4.80
2022-08-17T11:48:27.357Z,5.47
2022-08-17T11:51:25.093Z,5.22
2022-08-17T11:54:14.785Z,5.50
2022-08-17T11:56:50.165Z,5.30
2022-08-17T11:59:44.911Z,5.22
2022-08-17T12:02:32.902Z,4.78
2022-08-17T12:05:23.049Z,5.10
2022-08-17T12:08:12.594Z,5.07
2022-08-17T12:10:51.643Z,5.20
2022-08-17T12:13:19.561Z,5.30
2022-08-17T12:15:50.494Z,5.00
2022-08-17T12:18:24.534Z,5.53
2022-08-17T12:21:19.952Z,5.50
2022-08-17T12:24:06.641Z,5.50
2022-08-17T12:26:35.891Z,5.30
2022-08-17T12:29:09.310Z,5.60
2022-08-17T12:31:51.888Z,5.05
2022-08-17T12:34:35.958Z,4.97
2022-08-17T12:37:08.161Z,4.95
2022-08-17T12:39:35.339Z,4.82
2022-08-17T12:42:04.662Z,5.05
2022-08-17T12:44:35.734Z,5.00
2022-08-17T12:47:22.375Z,5.57
2022-08-17T12:49:53.145Z,4.97
2022-08-17T12:52:20.078Z,4.30
2022-08-17T12:54:52.438Z,5.78
2022-08-17T12:57:41.982Z,4.50
2022-08-17T13:00:21.848Z,4.55
2022-08-17T13:03:05.974Z,4.20
2022-08-17T13:05:53.974Z,4.30
2022-08-17T13:08:36.074Z,4.15
2022-08-17T13:11:24.607Z,4.03
2022-08-17T13:13:56.097Z,4.18
2022-08-17T13:16:30.337Z,4.50
2022-08-17T13:19:32.974Z,4.32
2022-08-17T13:22:11.678Z,4.57
2022-08-17T13:24:53.213Z,4.22
2022-08-17T13:27:23.337Z,4.25
2022-08-17T13:29:55.401Z,3.92
2022-08-17T13:32:33.643Z,4.10
2022-08-17T13:35:15.556Z,4.85
2022-08-17T13:38:05.399Z,4.00
2022-08-17T13:40:51.932Z,4.25
2022-08-17T13:43:41.035Z,4.28
2022-08-17T13:46:23.931Z,4.00
2022-08-17T13:49:12.093Z,4.00
2022-08-17T13:51:44.711Z,4.20
2022-08-17T13:54:24.479Z,4.38
2022-08-17T13:57:06.865Z,4.65
2022-08-17T13:59:54.124Z,4.53
2022-08-17T14:02:26.635Z,5.10
2022-08-17T14:04:56.300Z,4.97
2022-08-17T14:07:31.397Z,4.43
2022-08-17T14:10:03.393Z,5.50
2022-08-17T14:12:34.025Z,4.90
2022-08-17T14:15:02.214Z,4.50
2022-08-17T14:17:34.983Z,5.40
2022-08-17T14:20:09.489Z,4.70
2022-08-17T14:22:39.211Z,5.03
2022-08-17T14:25:08.698Z,5.13
2022-08-17T14:27:52.289Z,5.07
2022-08-17T14:30:24.465Z,4.50
2022-08-17T14:32:52.370Z,4.47
2022-08-17T14:35:22.614Z,5.72
2022-08-17T14:37:50.623Z,5.43
2022-08-17T14:40:20.976Z,5.20
2022-08-17T14:42:48.500Z,4.90
2022-08-17T14:45:31.511Z,5.13
2022-08-17T14:48:04.411Z,5.40
2022-08-17T14:50:35.449Z,4.78
2022-08-17T14:53:04.601Z,5.43
2022-08-17T14:55:32.545Z,5.00
2022-08-17T14:57:59.844Z,5.18
2022-08-17T15:00:26.981Z,5.50
2022-08-17T15:02:58.223Z,5.07
2022-08-17T15:05:31.558Z,5.57
2022-08-17T15:08:02.903Z,4.53
2022-08-17T15:10:31.333Z,5.07
2022-08-17T15:12:58.925Z,5.30
2022-08-17T15:15:26.391Z,5.65
2022-08-17T15:17:53.547Z,4.88
2022-08-17T15:20:24.116Z,5.82
2022-08-17T15:22:55.316Z,5.65
2022-08-17T15:25:24.315Z,5.60
2022-08-17T15:27:51.956Z,5.55
2022-08-17T15:30:19.952Z,5.28
2022-08-17T15:32:51.322Z,5.40
2022-08-17T15:35:27.077Z,5.15
2022-08-17T15:38:11.630Z,5.53
2022-08-17T15:40:43.001Z,5.07
2022-08-17T15:43:15.038Z,5.40
2022-08-17T15:45:42.383Z,5.95
2022-08-17T15:48:09.506Z,5.40
2022-08-17T15:50:37.379Z,5.38
2022-08-17T15:53:04.966Z,5.45
2022-08-17T15:55:33.134Z,6.53
2022-08-17T15:58:01.805Z,6.40
2022-08-17T16:00:29.580Z,5.03
2022-08-17T16:03:45.757Z,5.47
2022-08-17T16:05:47.145Z,5.43
2022-08-17T16:08:20.125Z,5.10
2022-08-17T16:10:50.263Z,5.28
2022-08-17T16:13:19.021Z,5.03
2022-08-17T16:15:57.293Z,5.53
2022-08-17T16:18:28.285Z,5.05
2022-08-17T16:20:55.513Z,4.97
2022-08-17T16:23:23.311Z,5.32
2022-08-17T16:25:53.950Z,5.22
2022-08-17T16:28:35.868Z,5.13
2022-08-17T16:31:05.834Z,4.80
2022-08-17T16:33:36.235Z,5.20
2022-08-17T16:36:03.718Z,5.68
2022-08-17T16:38:30.856Z,5.00
2022-08-17T16:40:58.309Z,5.13
2022-08-17T16:43:25.660Z,5.07
2022-08-17T16:45:52.915Z,5.22
2022-08-17T16:48:19.965Z,5.40
2022-08-17T16:51:03.158Z,5.38
2022-08-17T16:53:32.054Z,4.93
2022-08-17T16:55:58.977Z,5.75
2022-08-17T16:58:25.975Z,5.43
2022-08-17T17:00:53.615Z,5.72
2022-08-17T17:03:24.912Z,6.18
2022-08-17T17:06:13.625Z,6.68
2022-08-17T17:08:49.449Z,6.35
2022-08-17T17:11:44.054Z,5.80
2022-08-17T17:14:27.222Z,5.88
2022-08-17T17:17:06.642Z,6.38
2022-08-17T17:19:45.814Z,6.80
2022-08-17T17:22:18.993Z,5.95
2022-08-17T17:25:05.161Z,5.90
2022-08-17T17:27:54.006Z,5.80
2022-08-17T17:30:30.949Z,5.38
2022-08-17T17:33:13.488Z,6.90
2022-08-17T17:35:56.914Z,5.72
2022-08-17T17:38:34.373Z,6.72
2022-08-17T17:41:05.783Z,6.97
2022-08-17T17:43:39.600Z,8.13
2022-08-17T17:46:27.242Z,6.43
2022-08-17T17:48:55.541Z,6.45
2022-08-17T17:52:11.071Z,6.10
2022-08-17T17:55:04.423Z,6.80
2022-08-17T17:57:50.980Z,9.52
2022-08-17T18:00:35.414Z,10.00
2022-08-17T18:03:36.795Z,8.30
2022-08-17T18:06:14.906Z,9.32
2022-08-17T18:08:54.748Z,9.70
2022-08-17T18:11:25.115Z,7.80
2022-08-17T18:14:22.700Z,7.63
2022-08-17T18:16:55.896Z,7.93
2022-08-17T18:19:25.614Z,8.23
2022-08-17T18:22:02.658Z,8.35
2022-08-17T18:24:33.563Z,8.70
2022-08-17T18:27:08.766Z,8.27
2022-08-17T18:29:45.644Z,7.35
2022-08-17T18:32:23.651Z,7.53
2022-08-17T18:35:14.330Z,7.78
2022-08-17T18:37:46.289Z,7.93
2022-08-17T18:40:16.660Z,7.47
2022-08-17T18:43:05.489Z,9.23
2022-08-17T18:45:51.274Z,7.90
2022-08-17T18:48:18.196Z,7.95
2022-08-17T18:50:45.776Z,7.20
2022-08-17T18:53:26.765Z,7.97
2022-08-17T18:56:20.382Z,7.68
2022-08-17T18:59:05.528Z,7.82
2022-08-17T19:01:54.614Z,8.55
2022-08-17T19:05:01.535Z,9.88
2022-08-17T19:07:38.306Z,8.80
2022-08-17T19:10:27.352Z,8.18
2022-08-17T19:13:12.903Z,8.98
2022-08-17T19:16:13.027Z,9.57
2022-08-17T19:18:52.934Z,8.95
2022-08-17T19:21:37.319Z,8.50
2022-08-17T19:24:23.621Z,8.60
2022-08-17T19:26:57.566Z,8.57
2022-08-17T19:29:41.676Z,8.80
2022-08-17T19:32:11.355Z,8.27
2022-08-17T19:34:39.588Z,8.55
2022-08-17T19:37:24.589Z,7.88
2022-08-17T19:40:41.915Z,7.93
2022-08-17T19:43:26.203Z,8.38
2022-08-17T19:45:59.564Z,9.10
2022-08-17T19:48:54.737Z,10.02
2022-08-17T19:51:51.126Z,10.13
2022-08-17T19:55:07.207Z,9.15
2022-08-17T19:57:57.907Z,9.88
2022-08-17T20:00:25.299Z,8.65
2022-08-17T20:03:08.263Z,10.00
2022-08-17T20:06:09.127Z,9.98
2022-08-17T20:08:39.384Z,10.57
2022-08-17T20:11:20.235Z,11.27
2022-08-17T20:14:03.668Z,10.00
2022-08-17T20:16:33.360Z,10.32
2022-08-17T20:19:27.980Z,9.48
2022-08-17T20:22:10.527Z,9.10
2022-08-17T20:24:53.865Z,9.10
2022-08-17T20:27:31.707Z,9.45
2022-08-17T20:30:04.810Z,8.60
2022-08-17T20:32:51.927Z,8.27
2022-08-17T20:35:34.924Z,7.88
2022-08-17T20:38:04.862Z,8.40
2022-08-17T20:40:56.327Z,8.02
2022-08-17T20:43:35.697Z,8.50
2022-08-17T20:46:03.462Z,7.57
2022-08-17T20:48:41.750Z,7.10
2022-08-17T20:51:24.230Z,7.35
2022-08-17T20:53:52.266Z,9.65
2022-08-17T20:56:44.308Z,8.93
2022-08-17T20:59:28.310Z,9.10
2022-08-17T21:02:18.743Z,8.40
2022-08-17T21:04:57.546Z,8.27
2022-08-17T21:07:42.969Z,8.90
2022-08-17T21:10:25.902Z,8.85
2022-08-17T21:12:58.618Z,8.00
2022-08-17T21:15:37.915Z,8.02
2022-08-17T21:18:21.807Z,7.93
2022-08-17T21:21:01.010Z,8.05
2022-08-17T21:23:33.335Z,8.38
2022-08-17T21:26:18.185Z,8.80
2022-08-17T21:29:30.084Z,9.40
2022-08-17T21:31:59.587Z,8.15
2022-08-17T21:34:44.564Z,7.57
2022-08-17T21:37:21.957Z,8.00
2022-08-17T21:39:52.220Z,7.28
2022-08-17T21:42:31.669Z,6.85
2022-08-17T21:45:24.262Z,7.70
2022-08-17T21:48:08.375Z,7.72
2022-08-17T21:50:36.246Z,7.53
2022-08-17T21:53:05.253Z,7.40
2022-08-17T21:55:34.280Z,7.65
2022-08-17T21:58:14.326Z,7.70
2022-08-17T22:00:46.572Z,7.22
2022-08-17T22:03:26.049Z,8.60
2022-08-17T22:05:53.343Z,8.23
2022-08-17T22:08:24.133Z,8.10
2022-08-17T22:10:59.538Z,8.00
2022-08-17T22:13:29.737Z,8.57
2022-08-17T22:16:15.541Z,7.70
2022-08-17T22:18:59.355Z,7.03
2022-08-17T22:21:27.318Z,7.25
2022-08-17T22:24:14.539Z,7.00
2022-08-17T22:27:11.804Z,7.72
2022-08-17T22:29:53.161Z,7.63
2022-08-17T22:32:45.023Z,7.82
2022-08-17T22:35:27.287Z,7.35
2022-08-17T22:37:55.559Z,8.00
2022-08-17T22:40:34.489Z,8.75
2022-08-17T22:43:03.633Z,8.75
2022-08-17T22:45:31.343Z,8.70
2022-08-17T22:48:02.044Z,8.82
2022-08-17T22:50:31.589Z,8.38
2022-08-17T22:53:21.585Z,8.52
2022-08-17T22:56:13.426Z,8.65
2022-08-17T22:59:14.487Z,9.07
2022-08-17T23:01:43.378Z,8.75
2022-08-17T23:04:31.890Z,9.35
2022-08-17T23:06:58.938Z,8.85
2022-08-17T23:09:25.726Z,9.57
2022-08-17T23:11:58.515Z,9.50
2022-08-17T23:14:31.376Z,9.63
2022-08-17T23:17:01.799Z,9.13
2022-08-17T23:19:31.801Z,8.88
2022-08-17T23:21:59.839Z,8.93
2022-08-17T23:24:29.903Z,8.98
2022-08-17T23:26:58.150Z,8.68
2022-08-17T23:29:29.504Z,8.88
2022-08-17T23:31:59.788Z,9.00
2022-08-17T23:34:28.297Z,9.15
2022-08-17T23:36:56.054Z,9.05
2022-08-17T23:39:27.786Z,8.55
2022-08-17T23:41:57.965Z,9.38
2022-08-17T23:44:25.271Z,9.40
2022-08-17T23:46:53.543Z,9.93
2022-08-17T23:49:20.913Z,9.45
2022-08-17T23:51:48.641Z,9.65
2022-08-17T23:54:28.518Z,9.07
2022-08-17T23:56:55.699Z,8.40
2022-08-17T23:59:23.226Z,8.77
